Time;durP1;ratioP1;P1;durP2;ratioP2;P2;SDS_P1;SDS_P2;PMS_P1;PMS_P2;Temp;Humidity;BMP_temperature;BMP_pressure;BME280_temperature;BME280_humidity;BME280_pressure;Samples;Min_cycle;Max_cycle;Signal;HPM_P1;HPM_P2
2022/04/02 00:01:28;;;;;;;1.92;1.23;;;5.50;65.90;;;;;;4991810;28;20307;-73
2022/04/02 00:03:54;;;;;;;7.88;1.20;;;5.40;65.90;;;;;;4990157;28;20046;-73
2022/04/02 00:06:28;;;;;;;2.35;1.20;;;5.40;66.50;;;;;;4991725;28;20065;-74
2022/04/02 00:08:54;;;;;;;3.90;1.27;;;5.40;66.00;;;;;;4991351;28;20056;-73
2022/04/02 00:11:20;;;;;;;6.63;1.40;;;5.40;66.20;;;;;;4991173;28;20101;-73
2022/04/02 00:13:46;;;;;;;7.03;1.70;;;5.40;66.30;;;;;;4990054;28;20031;-74
2022/04/02 00:16:27;;;;;;;4.30;1.48;;;5.40;66.50;;;;;;4991607;28;20100;-73
2022/04/02 00:18:53;;;;;;;4.38;1.30;;;5.40;66.80;;;;;;4991091;28;20034;-74
2022/04/02 00:21:25;;;;;;;1.92;1.20;;;5.40;66.80;;;;;;4991352;28;20376;-74
2022/04/02 00:23:50;;;;;;;4.82;1.77;;;5.40;66.90;;;;;;4991215;28;20442;-74
2022/04/02 00:26:25;;;;;;;4.63;1.48;;;5.40;67.20;;;;;;4991316;28;20026;-74
2022/04/02 00:28:51;;;;;;;2.72;1.30;;;5.40;67.30;;;;;;4991182;28;20379;-75
2022/04/02 00:31:32;;;;;;;5.53;1.58;;;5.40;67.30;;;;;;4990371;28;20162;-75
2022/04/02 00:33:57;;;;;;;4.07;1.30;;;5.40;67.40;;;;;;4991372;28;20176;-73
2022/04/02 00:36:26;;;;;;;2.88;1.30;;;5.30;67.50;;;;;;4991167;28;20027;-74
2022/04/02 00:38:52;;;;;;;6.93;1.40;;;5.40;67.50;;;;;;4991118;28;20077;-74
2022/04/02 00:41:42;;;;;;;3.50;1.15;;;5.40;67.60;;;;;;4990967;28;20472;-74
2022/04/02 00:44:12;;;;;;;1.48;1.00;;;5.40;68.00;;;;;;4990666;28;20052;-74
2022/04/02 00:46:43;;;;;;;4.47;1.33;;;5.30;68.30;;;;;;4991417;28;20082;-74
2022/04/02 00:49:11;;;;;;;5.47;1.15;;;5.40;68.70;;;;;;4995291;28;20042;-73
2022/04/02 00:51:41;;;;;;;;;;;5.40;69.20;;;;;;4995124;28;20042;-74
2022/04/02 00:54:17;;;;;;;4.22;1.20;;;5.40;69.70;;;;;;4994932;28;20462;-73
2022/04/02 00:56:44;;;;;;;2.63;1.75;;;5.30;69.70;;;;;;4994718;28;20369;-73
2022/04/02 00:59:10;;;;;;;4.43;1.25;;;5.40;69.90;;;;;;4994791;28;20026;-73
2022/04/02 01:01:59;;;;;;;3.28;1.58;;;5.40;70.10;;;;;;4993574;28;20443;-73
2022/04/02 01:04:25;;;;;;;2.25;1.38;;;5.40;70.20;;;;;;4975669;28;20248;-74
2022/04/02 01:06:51;;;;;;;5.25;1.30;;;5.30;70.50;;;;;;4975293;28;20109;-74
2022/04/02 01:09:17;;;;;;;2.58;1.02;;;5.20;70.70;;;;;;4974903;28;20166;-74
2022/04/02 01:11:44;;;;;;;6.18;1.30;;;5.10;70.60;;;;;;4974907;28;20126;-73
2022/04/02 01:14:11;;;;;;;3.80;1.30;;;5.20;70.70;;;;;;4975008;28;20074;-74
2022/04/02 01:16:36;;;;;;;3.55;1.30;;;5.20;70.60;;;;;;4974994;28;20023;-74
2022/04/02 01:19:03;;;;;;;5.18;1.67;;;5.10;70.60;;;;;;4975215;28;20549;-73
2022/04/02 01:21:36;;;;;;;5.20;1.58;;;5.10;70.70;;;;;;4989905;28;20106;-75
2022/04/02 01:24:02;;;;;;;2.92;1.25;;;5.10;70.80;;;;;;4974667;28;20047;-73
2022/04/02 01:26:31;;;;;;;5.50;1.30;;;5.10;70.70;;;;;;4974705;28;20034;-74
2022/04/02 01:28:58;;;;;;;3.63;1.60;;;5.00;70.90;;;;;;4974793;28;20065;-74
2022/04/02 01:31:29;;;;;;;2.90;1.08;;;5.00;70.90;;;;;;4975186;28;20027;-73
2022/04/02 01:33:55;;;;;;;2.38;1.20;;;5.10;70.70;;;;;;4989784;28;20038;-73
2022/04/02 01:36:30;;;;;;;5.82;2.03;;;5.00;70.60;;;;;;4998149;28;20113;-74
2022/04/02 01:38:55;;;;;;;5.10;1.50;;;5.00;70.80;;;;;;5013841;28;20036;-74
2022/04/02 01:41:21;;;;;;;3.03;1.42;;;4.90;71.00;;;;;;5013629;28;20022;-73
2022/04/02 01:43:49;;;;;;;2.83;1.27;;;4.90;71.10;;;;;;5013461;28;20014;-74
2022/04/02 01:46:33;;;;;;;2.95;1.15;;;4.90;71.30;;;;;;5013995;28;20416;-74
2022/04/02 01:48:58;;;;;;;1.60;1.15;;;4.80;71.20;;;;;;5013475;28;20490;-73
2022/04/02 01:51:52;;;;;;;3.70;1.33;;;4.80;71.50;;;;;;5012517;28;20511;-73
2022/04/02 01:54:19;;;;;;;3.20;1.20;;;4.80;71.20;;;;;;5012975;28;20111;-74
2022/04/02 01:56:46;;;;;;;4.97;1.70;;;4.80;71.40;;;;;;5013355;28;20037;-75
2022/04/02 01:59:11;;;;;;;4.38;1.35;;;4.70;71.60;;;;;;5012842;28;20429;-74
2022/04/02 02:01:37;;;;;;;3.25;1.30;;;4.70;71.70;;;;;;5013148;28;20505;-73
2022/04/02 02:04:03;;;;;;;1.98;1.40;;;4.70;71.60;;;;;;5030252;28;20532;-74
2022/04/02 02:06:30;;;;;;;3.53;1.30;;;4.60;72.00;;;;;;5032823;28;20101;-74
2022/04/02 02:08:55;;;;;;;3.20;1.50;;;4.60;72.70;;;;;;5015294;28;20121;-75
2022/04/02 02:11:27;;;;;;;2.13;1.05;;;4.60;72.20;;;;;;5032463;28;20286;-75
2022/04/02 02:13:52;;;;;;;7.57;1.40;;;4.60;72.20;;;;;;5032631;28;20090;-74
2022/04/02 02:16:24;;;;;;;5.68;1.38;;;4.60;72.20;;;;;;5033137;28;20187;-74
2022/04/02 02:18:50;;;;;;;8.00;1.25;;;4.50;72.30;;;;;;5033024;28;20340;-75
2022/04/02 02:21:25;;;;;;;3.72;1.58;;;4.50;72.70;;;;;;5032616;28;20025;-75
2022/04/02 02:23:51;;;;;;;4.05;1.58;;;4.50;72.50;;;;;;5032560;28;20120;-74
2022/04/02 02:26:25;;;;;;;4.95;1.70;;;4.40;72.90;;;;;;5032461;28;20109;-75
2022/04/02 02:28:51;;;;;;;3.75;1.40;;;4.50;72.70;;;;;;5032542;28;20031;-74
2022/04/02 02:31:20;;;;;;;7.88;1.55;;;4.50;72.90;;;;;;5032908;28;20048;-75
2022/04/02 02:36:30;;;;;;;3.50;1.67;;;4.30;72.70;;;;;;5032691;28;20086;-73
2022/04/02 02:38:56;;;;;;;3.40;1.70;;;4.40;72.80;;;;;;5032467;28;20033;-74
2022/04/02 02:41:30;;;;;;;3.65;1.70;;;4.40;72.90;;;;;;5032299;28;20026;-74
2022/04/02 02:43:56;;;;;;;3.90;1.80;;;4.40;72.90;;;;;;5032098;28;20113;-73
2022/04/02 02:46:27;;;;;;;2.90;1.45;;;4.30;72.80;;;;;;5032510;28;20113;-74
2022/04/02 02:48:53;;;;;;;5.07;1.25;;;4.30;73.20;;;;;;5032563;28;20074;-74
2022/04/02 02:51:34;;;;;;;3.13;1.45;;;4.20;73.30;;;;;;5032528;28;20037;-75
2022/04/02 02:53:59;;;;;;;4.00;1.58;;;4.20;73.50;;;;;;5031876;28;20095;-75
2022/04/02 02:57:02;;;;;;;2.03;1.40;;;4.10;73.60;;;;;;5032014;28;20033;-73
2022/04/02 02:59:28;;;;;;;2.58;1.15;;;4.10;73.80;;;;;;5031997;28;20462;-75
2022/04/02 03:02:03;;;;;;;5.18;1.65;;;4.10;73.50;;;;;;5031804;28;20128;-75
2022/04/02 03:04:30;;;;;;;3.42;1.58;;;4.10;73.40;;;;;;5012589;28;20033;-74
2022/04/02 03:06:56;;;;;;;3.17;1.63;;;4.10;73.60;;;;;;5012062;28;20439;-74
2022/04/02 03:09:22;;;;;;;3.83;1.55;;;4.10;73.90;;;;;;5009832;28;20466;-75
2022/04/02 03:11:47;;;;;;;2.83;1.67;;;4.20;74.00;;;;;;5011618;28;20049;-74
2022/04/02 03:14:13;;;;;;;4.13;1.77;;;4.00;74.00;;;;;;5011997;28;20045;-74
2022/04/02 03:16:39;;;;;;;5.05;1.85;;;4.00;73.90;;;;;;5011932;28;20026;-75
2022/04/02 03:19:06;;;;;;;4.35;1.55;;;4.00;74.00;;;;;;5012155;28;20022;-74
2022/04/02 03:21:41;;;;;;;2.90;1.60;;;3.90;74.10;;;;;;5012035;28;20371;-75
2022/04/02 03:24:06;;;;;;;5.55;1.95;;;4.00;74.00;;;;;;5010808;28;20353;-75
2022/04/02 03:26:34;;;;;;;2.60;1.40;;;3.90;74.40;;;;;;5011596;28;20113;-74
2022/04/02 03:28:59;;;;;;;3.75;1.80;;;3.90;74.60;;;;;;5011471;28;20041;-74
2022/04/02 03:31:33;;;;;;;2.33;1.50;;;3.90;74.60;;;;;;5012074;28;20042;-75
2022/04/02 03:33:58;;;;;;;4.70;1.85;;;3.80;75.00;;;;;;5011494;28;20387;-74
2022/04/02 03:36:24;;;;;;;6.95;2.05;;;3.80;75.30;;;;;;5011527;28;20022;-74
2022/04/02 03:38:50;;;;;;;5.90;1.70;;;3.80;75.10;;;;;;5011640;28;20085;-74
2022/04/02 03:41:53;;;;;;;7.70;1.83;;;3.80;75.30;;;;;;5011425;28;20030;-74
2022/04/02 03:44:19;;;;;;;3.10;1.75;;;3.80;75.40;;;;;;5011292;28;20033;-74
2022/04/02 03:49:29;;;;;;;3.20;1.67;;;3.80;75.40;;;;;;5011546;28;20161;-73
2022/04/02 03:52:13;;;;;;;7.47;2.00;;;3.80;75.60;;;;;;5011364;28;20124;-74
2022/04/02 03:54:39;;;;;;;3.92;2.10;;;3.80;75.70;;;;;;5011379;28;20109;-74
2022/04/02 03:57:09;;;;;;;3.20;1.92;;;3.90;75.50;;;;;;5011202;28;20476;-74
2022/04/02 03:59:36;;;;;;;4.72;2.10;;;3.80;75.50;;;;;;5010794;28;20022;-74
2022/04/02 04:02:02;;;;;;;3.78;1.60;;;3.90;75.90;;;;;;5010757;28;20366;-75
2022/04/02 04:04:28;;;;;;;4.00;1.48;;;3.80;75.90;;;;;;5011346;28;20061;-75
2022/04/02 04:06:54;;;;;;;2.88;1.73;;;3.80;76.00;;;;;;5010934;28;20061;-74
2022/04/02 04:09:20;;;;;;;4.80;1.80;;;3.80;75.90;;;;;;5010770;28;20049;-73
2022/04/02 04:11:58;;;;;;;10.18;2.40;;;3.80;76.00;;;;;;5009529;28;20487;-73
2022/04/02 04:14:24;;;;;;;3.30;1.92;;;3.70;76.00;;;;;;5010738;28;20121;-74
2022/04/02 04:16:51;;;;;;;7.78;1.90;;;3.70;76.10;;;;;;5010668;28;20113;-73
2022/04/02 04:19:17;;;;;;;2.90;1.60;;;3.70;76.20;;;;;;5009956;28;20026;-73
2022/04/02 04:21:43;;;;;;;3.67;1.92;;;3.70;76.10;;;;;;5010516;28;20029;-73
2022/04/02 04:24:10;;;;;;;2.70;1.40;;;3.70;76.20;;;;;;5009422;28;20312;-74
2022/04/02 04:26:36;;;;;;;3.33;1.85;;;3.70;76.30;;;;;;5010514;28;20473;-72
2022/04/02 04:29:02;;;;;;;7.65;2.28;;;3.60;76.30;;;;;;5010407;28;20364;-73
2022/04/02 04:31:46;;;;;;;2.67;1.45;;;3.60;76.40;;;;;;5011095;28;20030;-75
2022/04/02 04:34:12;;;;;;;4.68;1.90;;;3.60;76.40;;;;;;5010797;28;20113;-74
2022/04/02 04:36:40;;;;;;;5.93;2.10;;;3.80;76.50;;;;;;5009373;28;20041;-74
2022/04/02 04:39:06;;;;;;;3.13;1.77;;;3.70;76.30;;;;;;5010374;28;20033;-73
2022/04/02 04:41:32;;;;;;;3.85;2.10;;;3.80;76.10;;;;;;5010369;28;20036;-74
2022/04/02 04:43:57;;;;;;;5.20;1.80;;;3.80;76.00;;;;;;5010393;28;20340;-74
2022/04/02 04:46:48;;;;;;;2.33;1.50;;;3.80;76.00;;;;;;5010863;28;20022;-74
2022/04/02 04:49:13;;;;;;;4.45;1.48;;;3.80;75.90;;;;;;5009469;28;20099;-74
2022/04/02 04:51:39;;;;;;;5.32;1.83;;;3.80;76.10;;;;;;5010428;28;20045;-73
2022/04/02 04:54:05;;;;;;;5.22;2.42;;;3.80;76.10;;;;;;5010261;28;20546;-74
2022/04/02 04:56:30;;;;;;;7.18;2.08;;;3.70;75.90;;;;;;5010379;28;20022;-73
2022/04/02 04:58:56;;;;;;;3.92;1.73;;;3.80;76.00;;;;;;5010315;28;20118;-74
2022/04/02 05:01:22;;;;;;;6.97;2.70;;;3.80;76.00;;;;;;5010832;28;20444;-72
2022/04/02 05:04:10;;;;;;;2.97;1.40;;;3.80;75.90;;;;;;5024143;28;20057;-73
2022/04/02 05:06:53;;;;;;;6.00;1.90;;;3.80;76.00;;;;;;5012652;28;20129;-73
2022/04/02 05:09:19;;;;;;;5.22;1.90;;;3.80;76.10;;;;;;5012462;28;20090;-74
2022/04/02 05:12:00;;;;;;;12.85;2.05;;;3.90;76.10;;;;;;5029743;28;20141;-73
2022/04/02 05:14:26;;;;;;;2.95;1.73;;;3.90;76.10;;;;;;5030035;28;20106;-72
2022/04/02 05:17:22;;;;;;;5.00;1.83;;;4.00;76.00;;;;;;5029909;28;20328;-74
2022/04/02 05:19:49;;;;;;;3.90;1.77;;;3.90;76.00;;;;;;5029984;28;20446;-74
2022/04/02 05:22:14;;;;;;;2.58;1.85;;;3.90;76.20;;;;;;5030463;28;20037;-72
2022/04/02 05:24:40;;;;;;;3.40;1.67;;;3.90;76.10;;;;;;5029918;28;20553;-74
2022/04/02 05:27:06;;;;;;;5.00;2.33;;;3.90;75.90;;;;;;5029853;28;20041;-73
2022/04/02 05:29:31;;;;;;;6.22;1.77;;;3.90;76.10;;;;;;5029840;28;20118;-72
2022/04/02 05:31:57;;;;;;;9.60;2.40;;;4.00;75.80;;;;;;5029654;28;20064;-73
2022/04/02 05:34:22;;;;;;;4.95;2.00;;;4.00;75.90;;;;;;5033498;28;20477;-73
2022/04/02 05:36:48;;;;;;;10.10;2.00;;;3.90;75.80;;;;;;5033771;28;20036;-74
2022/04/02 05:39:14;;;;;;;5.55;2.22;;;4.00;76.10;;;;;;5016089;28;20366;-74
2022/04/02 05:42:21;;;;;;;5.15;1.88;;;4.00;75.90;;;;;;5033435;28;20080;-73
2022/04/02 05:44:46;;;;;;;3.55;1.70;;;4.00;76.10;;;;;;5015629;28;20040;-73
2022/04/02 05:47:12;;;;;;;2.85;1.77;;;4.00;76.10;;;;;;5033145;28;20030;-73
2022/04/02 05:49:37;;;;;;;5.38;1.88;;;4.00;76.20;;;;;;5033044;28;20108;-74
2022/04/02 05:52:04;;;;;;;5.07;1.50;;;3.90;76.20;;;;;;5033301;28;20030;-74
2022/04/02 05:54:31;;;;;;;3.78;1.92;;;4.00;76.40;;;;;;5015420;28;20036;-74
2022/04/02 05:57:15;;;;;;;5.78;1.95;;;4.10;76.20;;;;;;5033004;28;20022;-74
2022/04/02 05:59:41;;;;;;;3.72;1.90;;;4.00;76.20;;;;;;5015405;28;20041;-74
2022/04/02 06:02:08;;;;;;;5.18;1.83;;;4.10;76.10;;;;;;5032608;28;20030;-74
2022/04/02 06:04:34;;;;;;;4.60;1.77;;;4.00;76.20;;;;;;5015583;28;20029;-75
2022/04/02 06:07:00;;;;;;;4.30;1.90;;;4.10;76.20;;;;;;5033080;28;20136;-74
2022/04/02 06:09:25;;;;;;;3.63;1.98;;;4.10;76.00;;;;;;5032817;28;20113;-74
2022/04/02 06:12:16;;;;;;;8.18;2.33;;;4.10;76.10;;;;;;5015113;28;20050;-73
2022/04/02 06:14:42;;;;;;;2.97;1.73;;;4.20;76.20;;;;;;5032774;28;20030;-73
2022/04/02 06:17:29;;;;;;;3.53;2.03;;;4.20;76.10;;;;;;5032571;28;20084;-73
2022/04/02 06:19:55;;;;;;;2.55;1.75;;;4.20;76.10;;;;;;5032527;28;20226;-74
2022/04/02 06:22:41;;;;;;;3.40;2.08;;;4.20;76.20;;;;;;5032868;28;20030;-73
2022/04/02 06:25:07;;;;;;;7.70;2.20;;;4.20;75.90;;;;;;5032452;28;20060;-74
2022/04/02 06:27:52;;;;;;;7.15;2.40;;;4.20;76.00;;;;;;5032506;28;20029;-74
2022/04/02 06:30:20;;;;;;;3.00;1.85;;;4.20;76.10;;;;;;5032438;28;20179;-74
2022/04/02 06:32:46;;;;;;;4.70;2.00;;;4.20;75.70;;;;;;5032268;28;20041;-75
2022/04/02 06:35:11;;;;;;;4.97;2.15;;;4.40;75.80;;;;;;5014668;28;20128;-73
2022/04/02 06:37:40;;;;;;;4.47;1.98;;;4.30;75.80;;;;;;5032231;28;20030;-72
2022/04/02 06:40:09;;;;;;;3.92;1.85;;;4.40;75.60;;;;;;5032579;28;20040;-75
2022/04/02 06:42:36;;;;;;;7.10;1.77;;;4.40;75.70;;;;;;5032198;28;20041;-74
2022/04/02 06:45:02;;;;;;;5.22;1.83;;;4.40;75.30;;;;;;5032291;28;20034;-73
2022/04/02 06:47:30;;;;;;;6.35;1.95;;;4.50;75.10;;;;;;5032052;28;20087;-73
2022/04/02 06:49:57;;;;;;;6.90;1.77;;;4.60;75.10;;;;;;5031920;28;20037;-76
2022/04/02 06:52:23;;;;;;;12.60;2.10;;;4.60;74.80;;;;;;5032418;28;20174;-77
2022/04/02 06:54:49;;;;;;;4.45;1.77;;;4.60;74.70;;;;;;5032203;28;20026;-74
2022/04/02 06:57:28;;;;;;;4.95;1.98;;;4.70;74.70;;;;;;5014079;28;20029;-76
2022/04/02 06:59:54;;;;;;;7.25;1.92;;;4.80;74.90;;;;;;5014513;28;20030;-74
2022/04/02 07:02:20;;;;;;;6.60;2.83;;;4.80;74.50;;;;;;5031670;28;20036;-76
2022/04/02 07:04:46;;;;;;;3.65;2.20;;;4.80;74.40;;;;;;5014214;28;20037;-72
2022/04/02 07:07:30;;;;;;;3.22;1.75;;;4.80;74.20;;;;;;5032582;28;20105;-73
2022/04/02 07:09:56;;;;;;;8.55;1.75;;;4.80;74.20;;;;;;5014100;28;20029;-73
2022/04/02 07:12:41;;;;;;;9.75;2.65;;;4.90;74.20;;;;;;5014076;28;20038;-74
2022/04/02 07:15:07;;;;;;;11.02;2.22;;;4.90;74.30;;;;;;5031571;28;20032;-73
2022/04/02 07:17:34;;;;;;;10.77;2.58;;;5.00;74.10;;;;;;5014117;28;20496;-74
2022/04/02 07:20:00;;;;;;;5.85;2.13;;;5.10;74.10;;;;;;5031470;28;20097;-74
2022/04/02 07:22:26;;;;;;;6.05;2.13;;;5.10;73.70;;;;;;5031680;28;20030;-75
2022/04/02 07:24:54;;;;;;;10.18;2.45;;;5.10;73.70;;;;;;5031283;28;20060;-75
2022/04/02 07:27:42;;;;;;;6.43;2.00;;;5.20;73.60;;;;;;5031398;28;20101;-75
2022/04/02 07:30:08;;;;;;;4.65;1.80;;;5.40;73.40;;;;;;5031162;28;20025;-74
2022/04/02 07:32:47;;;;;;;5.63;2.70;;;5.30;73.00;;;;;;5031033;28;20049;-75
2022/04/02 07:35:12;;;;;;;8.40;2.13;;;5.40;73.30;;;;;;5031355;28;20045;-75
2022/04/02 07:38:11;;;;;;;8.32;2.35;;;5.40;73.20;;;;;;5031338;28;20462;-75
2022/04/02 07:40:44;;;;;;;3.67;1.88;;;5.50;73.10;;;;;;5031312;28;20029;-74
2022/04/02 07:43:43;;;;;;;8.60;2.28;;;5.50;73.60;;;;;;5031343;28;20072;-75
2022/04/02 07:46:16;;;;;;;7.97;2.08;;;5.60;72.90;;;;;;5031006;28;20375;-73
2022/04/02 07:48:45;;;;;;;5.50;1.88;;;5.70;72.60;;;;;;5031210;28;20087;-77
2022/04/02 07:51:13;;;;;;;4.40;2.50;;;5.70;72.30;;;;;;5013810;28;20034;-78
2022/04/02 07:53:48;;;;;;;5.65;2.22;;;5.60;72.00;;;;;;5031070;28;20131;-76
2022/04/02 07:59:42;;;;;;;5.35;1.95;;;6.00;71.80;;;;;;5031185;28;20103;-75
2022/04/02 08:03:00;;;;;;;6.82;2.38;;;6.10;71.60;;;;;;5030713;28;20140;-75
2022/04/02 08:05:26;;;;;;;5.47;2.28;;;6.20;71.80;;;;;;5011195;28;20037;-74
2022/04/02 08:08:06;;;;;;;6.70;2.22;;;6.40;71.40;;;;;;5011035;28;20423;-75
2022/04/02 08:10:32;;;;;;;14.00;2.92;;;6.50;70.80;;;;;;5011187;28;20014;-74
2022/04/02 08:13:00;;;;;;;3.50;1.67;;;6.60;70.40;;;;;;5010769;28;20363;-77
2022/04/02 08:15:26;;;;;;;3.78;1.85;;;6.50;70.10;;;;;;5011063;28;20468;-75
2022/04/02 08:21:14;;;;;;;2.95;1.70;;;6.70;69.80;;;;;;4987390;28;20041;-79
2022/04/02 08:23:40;;;;;;;5.05;2.10;;;7.00;70.00;;;;;;5011195;28;20034;-79
2022/04/02 08:26:23;;;;;;;5.25;2.05;;;7.30;69.20;;;;;;5011055;28;20034;-77
2022/04/02 08:28:58;;;;;;;8.13;2.10;;;7.70;68.50;;;;;;5010814;28;20125;-76
2022/04/02 08:31:27;;;;;;;7.78;2.25;;;8.20;66.70;;;;;;5010319;28;20088;-75
2022/04/02 08:34:34;;;;;;;5.72;1.75;;;8.80;66.00;;;;;;5010844;28;20354;-75
2022/04/02 08:37:23;;;;;;;3.45;1.70;;;9.30;64.30;;;;;;4977673;28;20033;-73
2022/04/02 08:40:11;;;;;;;4.97;1.75;;;9.30;61.90;;;;;;5011251;28;20034;-75
2022/04/02 08:43:07;;;;;;;3.17;1.52;;;9.40;61.50;;;;;;5011074;28;20125;-74
2022/04/02 08:45:34;;;;;;;6.20;2.42;;;9.20;61.00;;;;;;5011011;28;20038;-75
2022/04/02 08:48:22;;;;;;;6.35;2.58;;;9.10;60.60;;;;;;5010883;28;20117;-75
2022/04/02 08:51:14;;;;;;;6.68;2.08;;;8.90;60.40;;;;;;5010799;28;20472;-75
2022/04/02 08:54:04;;;;;;;3.90;1.80;;;8.70;60.60;;;;;;5010875;28;20125;-76
2022/04/02 08:56:34;;;;;;;6.35;1.85;;;8.60;61.10;;;;;;5010959;28;20030;-73
2022/04/02 08:59:07;;;;;;;4.75;1.58;;;8.60;60.70;;;;;;5010835;28;20069;-74
2022/04/02 09:01:51;;;;;;;3.47;1.48;;;8.20;60.50;;;;;;5011117;28;20033;-74
2022/04/02 09:04:54;;;;;;;7.10;1.65;;;8.30;61.30;;;;;;5009620;28;20410;-77
2022/04/02 09:08:01;;;;;;;5.55;1.83;;;8.30;61.40;;;;;;5010839;28;20084;-75
2022/04/02 09:10:32;;;;;;;6.05;1.88;;;8.20;61.50;;;;;;5013407;28;20371;-75
2022/04/02 09:13:20;;;;;;;6.38;1.60;;;8.20;61.60;;;;;;5014292;28;20117;-76
2022/04/02 09:16:01;;;;;;;;;;;8.10;61.60;;;;;;5014812;28;20038;-76
2022/04/02 09:18:26;;;;;;;5.80;1.60;;;8.10;61.30;;;;;;5014296;28;19909;-79
2022/04/02 09:21:08;;;;;;;8.13;2.10;;;8.00;61.00;;;;;;5010732;28;20104;-77
2022/04/02 09:23:44;;;;;;;7.75;1.92;;;7.80;61.10;;;;;;4975611;28;20030;-77
2022/04/02 09:26:48;;;;;;;4.18;1.88;;;7.80;61.10;;;;;;4975150;28;20019;-78
2022/04/02 09:29:16;;;;;;;2.97;1.75;;;7.70;61.20;;;;;;4975222;28;20031;-75
2022/04/02 09:32:00;;;;;;;;;;;7.60;61.20;;;;;;4974486;28;20356;-77
2022/04/02 09:34:44;;;;;;;4.97;1.80;;;7.70;61.70;;;;;;4974309;28;19961;-76
2022/04/02 09:37:47;;;;;;;4.20;1.60;;;7.70;61.10;;;;;;4975048;28;20066;-76
2022/04/02 09:40:14;;;;;;;2.17;1.50;;;7.70;60.40;;;;;;4974821;28;20038;-76
2022/04/02 09:42:41;;;;;;;5.50;1.83;;;7.50;60.20;;;;;;4974735;28;20453;-79
2022/04/02 09:45:09;;;;;;;2.92;1.63;;;7.30;60.40;;;;;;4973563;28;20035;-77
2022/04/02 09:47:56;;;;;;;6.25;1.63;;;7.20;60.70;;;;;;4975002;28;20038;-76
2022/04/02 09:50:23;;;;;;;5.63;1.87;;;7.10;60.80;;;;;;4974937;28;20058;-74
2022/04/02 09:52:58;;;;;;;8.25;2.47;;;7.10;61.00;;;;;;4974548;28;20031;-76
2022/04/02 09:55:28;;;;;;;4.28;1.73;;;7.10;61.10;;;;;;4990171;28;20035;-75
2022/04/02 09:58:31;;;;;;;4.00;1.52;;;7.20;61.50;;;;;;4973391;28;20023;-77
2022/04/02 10:01:11;;;;;;;4.22;1.42;;;7.40;61.60;;;;;;4974561;28;20436;-77
2022/04/02 10:03:50;;;;;;;7.55;1.88;;;7.60;61.20;;;;;;4973090;28;20092;-74
2022/04/02 10:06:24;;;;;;;7.82;2.58;;;7.70;60.40;;;;;;4973184;28;20380;-77
2022/04/02 10:09:10;;;;;;;5.90;1.63;;;7.80;59.50;;;;;;4974570;28;20489;-76
2022/04/02 10:11:46;;;;;;;4.00;2.00;;;7.90;59.40;;;;;;4989329;28;20507;-74
2022/04/02 10:14:17;;;;;;;6.07;1.73;;;8.00;59.50;;;;;;4974013;28;20031;-76
2022/04/02 10:16:51;;;;;;;3.65;1.67;;;8.10;59.60;;;;;;4974353;28;20110;-78
2022/04/02 10:19:18;;;;;;;4.55;1.50;;;8.40;59.30;;;;;;4972977;28;20504;-77
2022/04/02 10:21:48;;;;;;;4.32;1.90;;;8.60;59.30;;;;;;4974231;28;20050;-78
2022/04/02 10:24:23;;;;;;;6.30;1.67;;;9.10;59.10;;;;;;4972885;28;20073;-80
2022/04/02 10:26:56;;;;;;;4.57;1.58;;;9.00;58.40;;;;;;4973336;28;20113;-78
2022/04/02 10:29:35;;;;;;;4.57;1.63;;;9.20;57.80;;;;;;4974006;28;20429;-81
2022/04/02 10:32:17;;;;;;;5.07;1.67;;;9.10;57.40;;;;;;4973045;28;20500;-83
2022/04/02 10:34:57;;;;;;;3.78;1.80;;;8.90;57.80;;;;;;4973480;28;20027;-81
2022/04/02 10:37:28;;;;;;;2.53;1.60;;;8.70;57.90;;;;;;4974507;28;20015;-83
2022/04/02 10:40:01;;;;;;;3.78;1.58;;;8.40;58.50;;;;;;4973964;28;20058;-79
2022/04/02 10:42:40;;;;;;;6.40;1.60;;;8.20;58.80;;;;;;4973894;28;20061;-83
2022/04/02 10:45:08;;;;;;;8.23;1.60;;;8.10;59.40;;;;;;4973612;28;20070;-81
2022/04/02 10:47:54;;;;;;;;;;;8.10;59.60;;;;;;4973465;28;20034;-83
2022/04/02 10:50:22;;;;;;;3.97;1.67;;;8.30;59.70;;;;;;4972652;28;20033;-80
2022/04/02 10:52:49;;;;;;;2.47;1.27;;;8.40;59.40;;;;;;4973447;28;20026;-77
2022/04/02 10:55:22;;;;;;;2.85;1.42;;;8.40;58.60;;;;;;4973943;28;20106;-77
2022/04/02 10:57:48;;;;;;;3.75;1.50;;;8.50;58.60;;;;;;4973109;28;20142;-76
2022/04/02 11:00:14;;;;;;;4.32;1.42;;;8.50;58.50;;;;;;4973389;28;20031;-76
2022/04/02 11:02:50;;;;;;;7.45;1.92;;;8.50;58.80;;;;;;4973138;28;20031;-76
2022/04/02 11:05:17;;;;;;;4.30;1.73;;;9.20;58.70;;;;;;4991036;28;20054;-76
2022/04/02 11:07:45;;;;;;;9.13;1.75;;;9.80;56.00;;;;;;4975294;28;20444;-74
2022/04/02 11:10:21;;;;;;;3.60;1.73;;;10.50;54.20;;;;;;4992066;28;20039;-80
2022/04/02 11:12:50;;;;;;;3.88;1.40;;;11.10;52.90;;;;;;4993088;28;20137;-80
2022/04/02 11:15:24;;;;;;;4.20;1.92;;;11.40;50.70;;;;;;4993127;28;20034;-80
2022/04/02 11:17:57;;;;;;;1.42;1.23;;;11.40;50.00;;;;;;4992693;28;20121;-80
2022/04/02 11:20:25;;;;;;;3.83;1.67;;;11.20;49.60;;;;;;4993519;28;20096;-77
2022/04/02 11:23:02;;;;;;;7.47;1.45;;;10.90;49.60;;;;;;4992822;28;20046;-76
2022/04/02 11:25:36;;;;;;;2.90;1.20;;;10.70;50.20;;;;;;4993090;28;20034;-83
2022/04/02 11:28:05;;;;;;;5.32;1.30;;;10.30;50.40;;;;;;4993599;28;20034;-83
2022/04/02 11:30:52;;;;;;;2.95;1.30;;;10.00;50.50;;;;;;4976316;28;20338;-80
2022/04/02 11:33:24;;;;;;;3.33;1.58;;;9.70;51.90;;;;;;4991782;28;20034;-83
2022/04/02 11:35:59;;;;;;;2.65;1.48;;;9.50;52.20;;;;;;4992775;28;20097;-83
2022/04/02 11:38:37;;;;;;;3.20;1.30;;;9.10;51.80;;;;;;4993160;28;20022;-83
2022/04/02 11:41:22;;;;;;;5.43;1.40;;;9.00;51.50;;;;;;4992799;28;20027;-79
2022/04/02 11:43:51;;;;;;;1.95;1.08;;;8.90;51.90;;;;;;4992344;28;20245;-77
2022/04/02 11:46:18;;;;;;;6.40;1.55;;;9.00;52.30;;;;;;4991312;28;20069;-79
2022/04/02 11:48:58;;;;;;;4.27;1.33;;;8.80;52.40;;;;;;4991392;28;20085;-78
2022/04/02 11:51:33;;;;;;;7.93;2.00;;;9.00;52.30;;;;;;4992110;28;20487;-73
2022/04/02 11:54:10;;;;;;;3.60;1.20;;;9.20;52.00;;;;;;4992453;28;20460;-78
2022/04/02 11:56:43;;;;;;;3.80;1.48;;;9.40;51.80;;;;;;4991482;28;20046;-79
2022/04/02 11:59:13;;;;;;;3.20;1.30;;;9.50;51.50;;;;;;4992061;28;20061;-80
2022/04/02 12:01:44;;;;;;;4.57;1.17;;;9.40;50.70;;;;;;4990639;28;20033;-81
2022/04/02 12:04:14;;;;;;;3.75;1.27;;;9.40;51.50;;;;;;4991878;28;20468;-81
2022/04/02 12:06:42;;;;;;;1.75;0.82;;;9.30;50.70;;;;;;4992877;28;20107;-79
2022/04/02 12:09:12;;;;;;;1.75;1.20;;;9.20;51.20;;;;;;5011458;28;20045;-80
2022/04/02 12:11:41;;;;;;;1.88;1.08;;;9.00;51.20;;;;;;4994094;28;20140;-80
2022/04/02 12:14:07;;;;;;;3.05;1.35;;;9.00;51.50;;;;;;4993953;28;20048;-79
2022/04/02 12:16:34;;;;;;;4.50;1.10;;;9.00;51.30;;;;;;5011895;28;20507;-79
2022/04/02 12:19:00;;;;;;;3.65;1.25;;;9.00;51.50;;;;;;5011813;28;20109;-79
2022/04/02 12:21:33;;;;;;;3.42;1.23;;;9.10;51.50;;;;;;5011724;28;20310;-81
2022/04/02 12:24:04;;;;;;;1.98;1.08;;;8.90;51.10;;;;;;5010550;28;20112;-82
2022/04/02 12:26:30;;;;;;;2.80;1.45;;;9.00;51.10;;;;;;5010968;28;20087;-80
2022/04/02 12:29:01;;;;;;;4.28;1.40;;;9.10;49.90;;;;;;5009472;28;20046;-81
2022/04/02 12:31:29;;;;;;;4.85;1.95;;;9.20;49.00;;;;;;4994089;28;20040;-80
2022/04/02 12:33:55;;;;;;;5.35;1.67;;;9.40;48.90;;;;;;4993555;28;20030;-80
2022/04/02 12:36:35;;;;;;;2.10;1.10;;;9.60;48.40;;;;;;5010810;28;20042;-80
2022/04/02 12:39:06;;;;;;;3.20;1.23;;;9.50;47.70;;;;;;5010905;28;20030;-80
2022/04/02 12:41:33;;;;;;;5.03;1.15;;;9.30;49.10;;;;;;5010834;28;20036;-80
2022/04/02 12:44:00;;;;;;;2.05;1.10;;;9.20;50.30;;;;;;5009858;28;20370;-80
2022/04/02 12:46:27;;;;;;;2.38;0.93;;;9.00;50.80;;;;;;5011630;28;20030;-80
2022/04/02 12:48:53;;;;;;;2.92;1.40;;;8.90;51.30;;;;;;5010510;28;20030;-80
2022/04/02 12:51:19;;;;;;;3.80;1.20;;;8.70;50.70;;;;;;5010702;28;20096;-81
2022/04/02 12:53:47;;;;;;;3.28;1.42;;;8.50;50.50;;;;;;4993415;28;20030;-79
2022/04/02 12:56:17;;;;;;;4.57;1.55;;;8.40;50.70;;;;;;5010635;28;20026;-81
2022/04/02 12:58:45;;;;;;;6.20;1.50;;;8.40;50.80;;;;;;5010696;28;20018;-79
2022/04/02 13:01:25;;;;;;;2.03;1.00;;;8.50;50.70;;;;;;4993466;28;20381;-81
2022/04/02 13:04:10;;;;;;;5.50;0.93;;;8.50;50.20;;;;;;4989887;28;20133;-80
2022/04/02 13:06:48;;;;;;;1.30;0.95;;;8.70;50.90;;;;;;4990683;28;20046;-79
2022/04/02 13:09:17;;;;;;;2.50;1.27;;;8.70;50.40;;;;;;4990429;28;20065;-81
2022/04/02 13:11:58;;;;;;;3.55;1.52;;;8.90;50.80;;;;;;4991279;28;20483;-80
2022/04/02 13:14:24;;;;;;;4.60;1.30;;;8.90;50.30;;;;;;4991007;28;20173;-80
2022/04/02 13:16:53;;;;;;;2.28;1.27;;;9.00;50.20;;;;;;4990073;28;20109;-79
2022/04/02 13:22:15;;;;;;;4.95;1.45;;;9.10;49.00;;;;;;4991337;28;20044;-82
2022/04/02 13:25:00;;;;;;;3.28;1.35;;;9.30;48.60;;;;;;4989850;28;20253;-80
2022/04/02 13:27:31;;;;;;;2.05;1.17;;;9.10;47.20;;;;;;4990502;28;20460;-80
2022/04/02 13:30:14;;;;;;;6.63;1.70;;;9.30;47.30;;;;;;4990843;28;20464;-79
2022/04/02 13:33:08;;;;;;;2.58;1.20;;;9.40;47.00;;;;;;4990835;28;20130;-79
2022/04/02 13:35:47;;;;;;;5.90;1.52;;;9.50;47.00;;;;;;4989638;28;20683;-79
2022/04/02 13:38:25;;;;;;;2.67;1.02;;;9.60;46.00;;;;;;4990712;28;20034;-79
2022/04/02 13:40:54;;;;;;;4.07;1.42;;;9.60;45.70;;;;;;4990866;28;20442;-78